PWSweather.com
Personal Weather Stations
Station Observations
AC5JC
Greenleaf Peninsula, Waco, Waco, TX 76710

Greenleaf Peninsula, WacoWaco, TX 76710

Lat: 31.565, Lon: -97.198

Elevation: 570

Station Type: Ambient WS-1400IP

http://ac5jc.dyndns.org

Latest ConditionsUpdated 6:06:00 PM CDT Wednesday, Oct 16, 2019
Currently Today's Max Today's Min Today's Average
Temperature 66.9°F19.4°C 74.7°F23.7°C 59.9°F15.5°C 65.6°F18.7°C
Dew Point 39.9°F4.4°C 73.8°F23.2°C 35.6°F2.0°C 46.1°F7.8°C
Winds 2.2 mph NW3.5 kmh NW 11.4 mph -18.3 kmh - - 4.5 mph 7.2 kmh
Wind Gusts 4.9 mph7.9 kmh 22.6 mph36.4 kmh - -
Humidity 37% 97% 30% 52%
Pressure 30.08 in1018.6 mb 30.21 in1023.0 mb 29.93 in1013.5 mb -
Precipitation - 0.02 in0.5 mm - -
Hour Temp Dew Point Humidity Winds Wind Gusts Pressure Precip Precip Rate Daily Precip Total
06:06 PM 66.9°F19.4°C 39.9°F4.4°C 37% 2.2 mph NW3.5 kmh NW 4.9 mph7.9 kmh 30.08 in1018.6 mb 0.00 in0.0 mm 0.00 in0.0 mm 0.02 in0.5 mm
06:03 PM 66.9°F19.4°C 39.4°F4.1°C 36% 1.9 mph NW3.1 kmh NW 7.6 mph12.2 kmh 30.09 in1019.0 mb 0.00 in0.0 mm 0.00 in0.0 mm 0.02 in0.5 mm
06:00 PM 66.7°F19.3°C 38.5°F3.6°C 36% 4.0 mph NW6.4 kmh NW 7.6 mph12.2 kmh 30.09 in1019.0 mb 0.00 in0.0 mm 0.00 in0.0 mm 0.02 in0.5 mm
05:57 PM 66.8°F19.3°C 38.3°F3.5°C 35% 2.2 mph NW3.5 kmh NW 7.6 mph12.2 kmh 30.09 in1019.0 mb 0.00 in0.0 mm 0.00 in0.0 mm 0.02 in0.5 mm
05:54 PM 66.9°F19.4°C 38.4°F3.6°C 35% 3.6 mph NW5.8 kmh NW 7.6 mph12.2 kmh 30.09 in1019.0 mb 0.00 in0.0 mm 0.00 in0.0 mm 0.02 in0.5 mm
05:51 PM 67.1°F19.5°C 38.0°F3.3°C 34% 4.8 mph NNW7.7 kmh NNW 10.1 mph16.3 kmh 30.09 in1019.0 mb 0.00 in0.0 mm 0.00 in0.0 mm 0.02 in0.5 mm
05:48 PM 67.0°F19.4°C 37.7°F3.2°C 34% 3.9 mph W6.3 kmh W 4.9 mph7.9 kmh 30.10 in1019.3 mb 0.00 in0.0 mm 0.00 in0.0 mm 0.02 in0.5 mm
05:45 PM 67.0°F19.4°C 37.7°F3.2°C 34% 2.7 mph NW4.3 kmh NW 10.1 mph16.3 kmh 30.11 in1019.6 mb 0.00 in0.0 mm 0.00 in0.0 mm 0.02 in0.5 mm
05:42 PM 67.0°F19.4°C 38.2°F3.4°C 35% 6.2 mph NW10.0 kmh NW 12.5 mph20.1 kmh 30.11 in1019.6 mb 0.00 in0.0 mm 0.00 in0.0 mm 0.02 in0.5 mm
05:39 PM 67.0°F19.4°C 37.7°F3.2°C 34% 5.6 mph NW9.0 kmh NW 10.1 mph16.3 kmh 30.11 in1019.6 mb 0.00 in0.0 mm 0.00 in0.0 mm 0.02 in0.5 mm
05:36 PM 67.1°F19.5°C 38.0°F3.3°C 34% 4.2 mph NNW6.8 kmh NNW 7.6 mph12.2 kmh 30.11 in1019.6 mb 0.00 in0.0 mm 0.00 in0.0 mm 0.02 in0.5 mm
05:33 PM 67.1°F19.5°C 37.8°F3.2°C 34% 3.2 mph NW5.1 kmh NW 7.6 mph12.2 kmh 30.11 in1019.6 mb 0.00 in0.0 mm 0.00 in0.0 mm 0.02 in0.5 mm
05:30 PM 67.2°F19.6°C 37.9°F3.3°C 34% 3.8 mph NNW6.1 kmh NNW 7.6 mph12.2 kmh 30.11 in1019.6 mb 0.00 in0.0 mm 0.00 in0.0 mm 0.02 in0.5 mm
05:27 PM 67.5°F19.7°C 38.9°F3.8°C 35% 3.3 mph NW5.3 kmh NW 7.6 mph12.2 kmh 30.10 in1019.3 mb 0.00 in0.0 mm 0.00 in0.0 mm 0.02 in0.5 mm
05:24 PM 67.7°F19.8°C 38.5°F3.6°C 34% 2.5 mph NW4.0 kmh NW 4.9 mph7.9 kmh 30.11 in1019.6 mb 0.00 in0.0 mm 0.00 in0.0 mm 0.02 in0.5 mm
05:21 PM 67.8°F19.9°C 38.4°F3.6°C 34% 5.1 mph NW8.2 kmh NW 10.1 mph16.3 kmh 30.11 in1019.6 mb 0.00 in0.0 mm 0.00 in0.0 mm 0.02 in0.5 mm
05:18 PM 67.8°F19.9°C 37.7°F3.2°C 33% 4.7 mph NW7.6 kmh NW 7.6 mph12.2 kmh 30.10 in1019.3 mb 0.00 in0.0 mm 0.00 in0.0 mm 0.02 in0.5 mm
05:15 PM 68.0°F20.0°C 38.2°F3.4°C 34% 4.6 mph NW7.4 kmh NW 10.1 mph16.3 kmh 30.11 in1019.6 mb 0.00 in0.0 mm 0.00 in0.0 mm 0.02 in0.5 mm
05:12 PM 67.8°F19.9°C 39.1°F3.9°C 35% 4.5 mph NW7.2 kmh NW 10.1 mph16.3 kmh 30.11 in1019.6 mb 0.00 in0.0 mm 0.00 in0.0 mm 0.02 in0.5 mm
05:09 PM 67.4°F19.7°C 38.2°F3.4°C 34% 3.6 mph W5.8 kmh W 7.6 mph12.2 kmh 30.12 in1020.0 mb 0.00 in0.0 mm 0.00 in0.0 mm 0.02 in0.5 mm
05:06 PM 67.3°F19.6°C 38.6°F3.7°C 35% 3.7 mph NW6.0 kmh NW 7.6 mph12.2 kmh 30.12 in1020.0 mb 0.00 in0.0 mm 0.00 in0.0 mm 0.02 in0.5 mm
05:03 PM 67.4°F19.7°C 38.8°F3.8°C 35% 4.6 mph NNW7.4 kmh NNW 7.6 mph12.2 kmh 30.11 in1019.6 mb 0.00 in0.0 mm 0.00 in0.0 mm 0.02 in0.5 mm
05:00 PM 67.5°F19.7°C 39.4°F4.1°C 36% 2.7 mph NW4.3 kmh NW 4.9 mph7.9 kmh 30.11 in1019.6 mb 0.00 in0.0 mm 0.00 in0.0 mm 0.02 in0.5 mm
04:57 PM 67.5°F19.7°C 39.2°F4.0°C 36% 0.6 mph WNW1.0 kmh WNW 4.9 mph7.9 kmh 30.12 in1020.0 mb 0.00 in0.0 mm 0.00 in0.0 mm 0.02 in0.5 mm
04:54 PM 67.3°F19.6°C 38.1°F3.4°C 34% 2.1 mph NW3.4 kmh NW 4.9 mph7.9 kmh 30.12 in1020.0 mb 0.00 in0.0 mm 0.00 in0.0 mm 0.02 in0.5 mm
04:51 PM 67.3°F19.6°C 38.0°F3.3°C 34% 2.3 mph NW3.7 kmh NW 4.9 mph7.9 kmh 30.12 in1020.0 mb 0.00 in0.0 mm 0.00 in0.0 mm 0.02 in0.5 mm
04:48 PM 67.3°F19.6°C 38.0°F3.3°C 34% 4.7 mph NNW7.6 kmh NNW 7.6 mph12.2 kmh 30.12 in1020.0 mb 0.00 in0.0 mm 0.00 in0.0 mm 0.02 in0.5 mm
04:45 PM 67.1°F19.5°C 37.8°F3.2°C 34% 4.0 mph NNW6.4 kmh NNW 10.1 mph16.3 kmh 30.12 in1020.0 mb 0.00 in0.0 mm 0.00 in0.0 mm 0.02 in0.5 mm
04:42 PM 67.3°F19.6°C 38.7°F3.7°C 35% 4.4 mph N7.1 kmh N 7.6 mph12.2 kmh 30.12 in1020.0 mb 0.00 in0.0 mm 0.00 in0.0 mm 0.02 in0.5 mm
04:39 PM 67.2°F19.6°C 38.6°F3.7°C 35% 2.4 mph NW3.9 kmh NW 10.1 mph16.3 kmh 30.11 in1019.6 mb 0.00 in0.0 mm 0.00 in0.0 mm 0.02 in0.5 mm
04:36 PM 66.8°F19.3°C 38.3°F3.5°C 35% 1.8 mph W2.9 kmh W 4.9 mph7.9 kmh 30.12 in1020.0 mb 0.00 in0.0 mm 0.00 in0.0 mm 0.02 in0.5 mm
04:33 PM 66.7°F19.3°C 37.4°F3.0°C 34% 4.0 mph NW6.4 kmh NW 7.6 mph12.2 kmh 30.12 in1020.0 mb 0.00 in0.0 mm 0.00 in0.0 mm 0.02 in0.5 mm
04:30 PM 66.6°F19.2°C 37.4°F3.0°C 34% 3.5 mph W5.6 kmh W 4.9 mph7.9 kmh 30.12 in1020.0 mb 0.00 in0.0 mm 0.00 in0.0 mm 0.02 in0.5 mm
04:27 PM 66.7°F19.3°C 37.8°F3.2°C 34% 4.0 mph NW6.4 kmh NW 7.6 mph12.2 kmh 30.13 in1020.3 mb 0.00 in0.0 mm 0.00 in0.0 mm 0.02 in0.5 mm
04:24 PM 66.5°F19.2°C 38.0°F3.3°C 35% 2.3 mph NNW3.7 kmh NNW 7.6 mph12.2 kmh 30.13 in1020.3 mb 0.00 in0.0 mm 0.00 in0.0 mm 0.02 in0.5 mm
04:21 PM 66.5°F19.2°C 38.6°F3.7°C 36% 3.8 mph N6.1 kmh N 7.6 mph12.2 kmh 30.13 in1020.3 mb 0.00 in0.0 mm 0.00 in0.0 mm 0.02 in0.5 mm
04:18 PM 66.4°F19.1°C 38.1°F3.4°C 35% 5.0 mph W8.0 kmh W 12.5 mph20.1 kmh 30.13 in1020.3 mb 0.00 in0.0 mm 0.00 in0.0 mm 0.02 in0.5 mm
04:15 PM 66.5°F19.2°C 38.0°F3.3°C 35% 4.1 mph W6.6 kmh W 7.6 mph12.2 kmh 30.13 in1020.3 mb 0.00 in0.0 mm 0.00 in0.0 mm 0.02 in0.5 mm
04:12 PM 66.6°F19.2°C 38.6°F3.7°C 36% 5.0 mph NNW8.0 kmh NNW 10.1 mph16.3 kmh 30.13 in1020.3 mb 0.00 in0.0 mm 0.00 in0.0 mm 0.02 in0.5 mm
04:09 PM 66.5°F19.2°C 38.7°F3.7°C 36% 2.6 mph NNW4.2 kmh NNW 4.9 mph7.9 kmh 30.14 in1020.7 mb 0.00 in0.0 mm 0.00 in0.0 mm 0.02 in0.5 mm
04:06 PM 66.7°F19.3°C 39.2°F4.0°C 36% 5.4 mph NW8.7 kmh NW 10.1 mph16.3 kmh 30.13 in1020.3 mb 0.00 in0.0 mm 0.00 in0.0 mm 0.02 in0.5 mm
04:03 PM 66.6°F19.2°C 38.6°F3.7°C 36% 2.5 mph NW4.0 kmh NW 4.9 mph7.9 kmh 30.13 in1020.3 mb 0.00 in0.0 mm 0.00 in0.0 mm 0.02 in0.5 mm
04:00 PM 66.5°F19.2°C 37.4°F3.0°C 34% 4.2 mph NW6.8 kmh NW 10.1 mph16.3 kmh 30.13 in1020.3 mb 0.00 in0.0 mm 0.00 in0.0 mm 0.02 in0.5 mm
03:57 PM 66.6°F19.2°C 38.1°F3.4°C 35% 3.5 mph NNW5.6 kmh NNW 7.6 mph12.2 kmh 30.13 in1020.3 mb 0.00 in0.0 mm 0.00 in0.0 mm 0.02 in0.5 mm
03:54 PM 66.6°F19.2°C 37.5°F3.1°C 34% 4.3 mph NW6.9 kmh NW 7.6 mph12.2 kmh 30.13 in1020.3 mb 0.00 in0.0 mm 0.00 in0.0 mm 0.02 in0.5 mm
03:51 PM 66.7°F19.3°C 38.1°F3.4°C 35% 5.4 mph NNW8.7 kmh NNW 7.6 mph12.2 kmh 30.12 in1020.0 mb 0.00 in0.0 mm 0.00 in0.0 mm 0.02 in0.5 mm
03:48 PM 66.7°F19.3°C 37.6°F3.1°C 34% 2.5 mph NW4.0 kmh NW 7.6 mph12.2 kmh 30.12 in1020.0 mb 0.00 in0.0 mm 0.00 in0.0 mm 0.02 in0.5 mm
03:45 PM 66.6°F19.2°C 37.4°F3.0°C 34% 4.5 mph NNW7.2 kmh NNW 4.9 mph7.9 kmh 30.13 in1020.3 mb 0.00 in0.0 mm 0.00 in0.0 mm 0.02 in0.5 mm
03:42 PM 66.7°F19.3°C 37.1°F2.8°C 34% 3.4 mph NW5.5 kmh NW 4.9 mph7.9 kmh 30.12 in1020.0 mb 0.00 in0.0 mm 0.00 in0.0 mm 0.02 in0.5 mm
03:39 PM 66.6°F19.2°C 36.6°F2.6°C 33% 2.7 mph NW4.3 kmh NW 4.9 mph7.9 kmh 30.13 in1020.3 mb 0.00 in0.0 mm 0.00 in0.0 mm 0.02 in0.5 mm
03:36 PM 66.7°F19.3°C 37.4°F3.0°C 34% 5.5 mph NNW8.9 kmh NNW 15.0 mph24.1 kmh 30.13 in1020.3 mb 0.00 in0.0 mm 0.00 in0.0 mm 0.02 in0.5 mm
03:33 PM 67.8°F19.9°C 37.9°F3.3°C 33% 3.8 mph WNW6.1 kmh WNW 4.9 mph7.9 kmh 30.13 in1020.3 mb 0.00 in0.0 mm 0.00 in0.0 mm 0.02 in0.5 mm
03:30 PM 68.5°F20.3°C 39.0°F3.9°C 34% 4.2 mph NW6.8 kmh NW 7.6 mph12.2 kmh 30.13 in1020.3 mb 0.00 in0.0 mm 0.00 in0.0 mm 0.02 in0.5 mm
03:27 PM 68.7°F20.4°C 38.0°F3.3°C 32% 3.6 mph W5.8 kmh W 7.6 mph12.2 kmh 30.14 in1020.7 mb 0.00 in0.0 mm 0.00 in0.0 mm 0.02 in0.5 mm
03:24 PM 68.9°F20.5°C 39.5°F4.2°C 34% 5.3 mph N8.5 kmh N 10.1 mph16.3 kmh 30.12 in1020.0 mb 0.00 in0.0 mm 0.00 in0.0 mm 0.02 in0.5 mm
03:21 PM 69.0°F20.6°C 39.8°F4.3°C 34% 3.2 mph NNW5.1 kmh NNW 7.6 mph12.2 kmh 30.13 in1020.3 mb 0.00 in0.0 mm 0.00 in0.0 mm 0.02 in0.5 mm
03:18 PM 67.5°F19.7°C 38.2°F3.4°C 34% 1.4 mph N2.3 kmh N 4.9 mph7.9 kmh 30.14 in1020.7 mb 0.00 in0.0 mm 0.00 in0.0 mm 0.02 in0.5 mm
03:15 PM 67.1°F19.5°C 36.8°F2.7°C 33% 3.5 mph NW5.6 kmh NW 7.6 mph12.2 kmh 30.14 in1020.7 mb 0.00 in0.0 mm 0.00 in0.0 mm 0.02 in0.5 mm
03:12 PM 68.4°F20.2°C 37.3°F2.9°C 32% 5.2 mph NNE8.4 kmh NNE 12.5 mph20.1 kmh 30.14 in1020.7 mb 0.00 in0.0 mm 0.00 in0.0 mm 0.02 in0.5 mm
03:09 PM 68.4°F20.2°C 38.0°F3.3°C 33% 6.0 mph N9.7 kmh N 10.1 mph16.3 kmh 30.14 in1020.7 mb 0.00 in0.0 mm 0.00 in0.0 mm 0.02 in0.5 mm
03:06 PM 68.6°F20.3°C 38.9°F3.8°C 34% 5.8 mph N9.3 kmh N 7.6 mph12.2 kmh 30.14 in1020.7 mb 0.00 in0.0 mm 0.00 in0.0 mm 0.02 in0.5 mm
03:03 PM 68.5°F20.3°C 38.2°F3.4°C 33% 5.9 mph W9.5 kmh W 7.6 mph12.2 kmh 30.14 in1020.7 mb 0.00 in0.0 mm 0.00 in0.0 mm 0.02 in0.5 mm
03:00 PM 68.5°F20.3°C 38.3°F3.5°C 33% 3.3 mph NW5.3 kmh NW 4.9 mph7.9 kmh 30.14 in1020.7 mb 0.00 in0.0 mm 0.00 in0.0 mm 0.02 in0.5 mm
02:57 PM 68.5°F20.3°C 38.5°F3.6°C 33% 4.1 mph N6.6 kmh N 7.6 mph12.2 kmh 30.14 in1020.7 mb 0.00 in0.0 mm 0.00 in0.0 mm 0.02 in0.5 mm
02:54 PM 68.3°F20.2°C 38.1°F3.4°C 33% 1.5 mph NNW2.4 kmh NNW 4.9 mph7.9 kmh 30.14 in1020.7 mb 0.00 in0.0 mm 0.00 in0.0 mm 0.02 in0.5 mm
02:51 PM 68.5°F20.3°C 38.8°F3.8°C 34% 6.2 mph NE10.0 kmh NE 12.5 mph20.1 kmh 30.15 in1021.0 mb 0.00 in0.0 mm 0.00 in0.0 mm 0.02 in0.5 mm
02:48 PM 68.5°F20.3°C 37.9°F3.3°C 32% 1.4 mph N2.3 kmh N 4.9 mph7.9 kmh 30.15 in1021.0 mb 0.00 in0.0 mm 0.00 in0.0 mm 0.02 in0.5 mm
02:45 PM 68.4°F20.2°C 37.4°F3.0°C 32% 3.8 mph N6.1 kmh N 4.9 mph7.9 kmh 30.15 in1021.0 mb 0.00 in0.0 mm 0.00 in0.0 mm 0.02 in0.5 mm
02:42 PM 68.5°F20.3°C 37.8°F3.2°C 32% 4.7 mph NW7.6 kmh NW 7.6 mph12.2 kmh 30.15 in1021.0 mb 0.00 in0.0 mm 0.00 in0.0 mm 0.02 in0.5 mm
02:39 PM 68.0°F20.0°C 36.5°F2.5°C 31% 3.2 mph WNW5.1 kmh WNW 7.6 mph12.2 kmh 30.16 in1021.3 mb 0.00 in0.0 mm 0.00 in0.0 mm 0.02 in0.5 mm
02:36 PM 68.2°F20.1°C 36.4°F2.4°C 31% 7.3 mph NW11.7 kmh NW 15.0 mph24.1 kmh 30.14 in1020.7 mb 0.00 in0.0 mm 0.00 in0.0 mm 0.02 in0.5 mm
02:33 PM 69.0°F20.6°C 37.1°F2.8°C 31% 3.2 mph NW5.1 kmh NW 4.9 mph7.9 kmh 30.15 in1021.0 mb 0.00 in0.0 mm 0.00 in0.0 mm 0.02 in0.5 mm
02:30 PM 68.9°F20.5°C 36.8°F2.7°C 31% 3.0 mph NW4.8 kmh NW 4.9 mph7.9 kmh 30.15 in1021.0 mb 0.00 in0.0 mm 0.00 in0.0 mm 0.02 in0.5 mm
02:27 PM 69.0°F20.6°C 37.1°F2.8°C 31% 6.3 mph NW10.1 kmh NW 12.5 mph20.1 kmh 30.16 in1021.3 mb 0.00 in0.0 mm 0.00 in0.0 mm 0.02 in0.5 mm
02:24 PM 68.9°F20.5°C 37.0°F2.8°C 31% 4.4 mph NNW7.1 kmh NNW 7.6 mph12.2 kmh 30.15 in1021.0 mb 0.00 in0.0 mm 0.00 in0.0 mm 0.02 in0.5 mm
02:21 PM 68.5°F20.3°C 35.9°F2.2°C 30% 7.7 mph N12.4 kmh N 12.5 mph20.1 kmh 30.16 in1021.3 mb 0.00 in0.0 mm 0.00 in0.0 mm 0.02 in0.5 mm
02:18 PM 68.8°F20.4°C 36.3°F2.4°C 30% 5.6 mph N9.0 kmh N 10.1 mph16.3 kmh 30.15 in1021.0 mb 0.00 in0.0 mm 0.00 in0.0 mm 0.02 in0.5 mm
02:15 PM 68.5°F20.3°C 35.9°F2.2°C 30% 6.9 mph NNW11.1 kmh NNW 15.0 mph24.1 kmh 30.15 in1021.0 mb 0.00 in0.0 mm 0.00 in0.0 mm 0.02 in0.5 mm
02:12 PM 68.6°F20.3°C 36.5°F2.5°C 31% 6.4 mph NNE10.3 kmh NNE 7.6 mph12.2 kmh 30.15 in1021.0 mb 0.00 in0.0 mm 0.00 in0.0 mm 0.02 in0.5 mm
02:09 PM 68.4°F20.2°C 35.8°F2.1°C 30% 5.1 mph N8.2 kmh N 10.1 mph16.3 kmh 30.16 in1021.3 mb 0.00 in0.0 mm 0.00 in0.0 mm 0.02 in0.5 mm
02:06 PM 68.9°F20.5°C 36.2°F2.3°C 30% 4.8 mph N7.7 kmh N 10.1 mph16.3 kmh 30.16 in1021.3 mb 0.00 in0.0 mm 0.00 in0.0 mm 0.02 in0.5 mm
02:03 PM 68.5°F20.3°C 35.9°F2.2°C 30% 6.7 mph NNE10.8 kmh NNE 12.5 mph20.1 kmh 30.16 in1021.3 mb 0.00 in0.0 mm 0.00 in0.0 mm 0.02 in0.5 mm
02:00 PM 68.3°F20.2°C 35.7°F2.1°C 30% 4.8 mph NW7.7 kmh NW 7.6 mph12.2 kmh 30.16 in1021.3 mb 0.00 in0.0 mm 0.00 in0.0 mm 0.02 in0.5 mm
01:57 PM 68.6°F20.3°C 35.9°F2.2°C 30% 7.6 mph NNW12.2 kmh NNW 15.0 mph24.1 kmh 30.16 in1021.3 mb 0.00 in0.0 mm 0.00 in0.0 mm 0.02 in0.5 mm
01:54 PM 68.3°F20.2°C 35.7°F2.1°C 30% 3.4 mph NNW5.5 kmh NNW 4.9 mph7.9 kmh 30.16 in1021.3 mb 0.00 in0.0 mm 0.00 in0.0 mm 0.02 in0.5 mm
01:51 PM 68.2°F20.1°C 35.6°F2.0°C 30% 5.0 mph N8.0 kmh N 10.1 mph16.3 kmh 30.17 in1021.7 mb 0.00 in0.0 mm 0.00 in0.0 mm 0.02 in0.5 mm
01:48 PM 68.8°F20.4°C 36.9°F2.7°C 31% 6.7 mph NNW10.8 kmh NNW 12.5 mph20.1 kmh 30.17 in1021.7 mb 0.00 in0.0 mm 0.00 in0.0 mm 0.02 in0.5 mm
01:45 PM 68.5°F20.3°C 37.4°F3.0°C 32% 4.1 mph NNW6.6 kmh NNW 10.1 mph16.3 kmh 30.17 in1021.7 mb 0.00 in0.0 mm 0.00 in0.0 mm 0.02 in0.5 mm
01:42 PM 68.2°F20.1°C 37.3°F2.9°C 32% 3.7 mph NNW6.0 kmh NNW 7.6 mph12.2 kmh 30.16 in1021.3 mb 0.00 in0.0 mm 0.00 in0.0 mm 0.02 in0.5 mm
01:39 PM 66.2°F19.0°C 35.7°F2.1°C 32% 6.6 mph NE10.6 kmh NE 12.5 mph20.1 kmh 30.17 in1021.7 mb 0.00 in0.0 mm 0.00 in0.0 mm 0.02 in0.5 mm
01:36 PM 65.9°F18.8°C 36.4°F2.4°C 34% 5.1 mph N8.2 kmh N 7.6 mph12.2 kmh 30.16 in1021.3 mb 0.00 in0.0 mm 0.00 in0.0 mm 0.02 in0.5 mm
01:33 PM 66.0°F18.9°C 36.2°F2.3°C 33% 3.6 mph NNE5.8 kmh NNE 7.6 mph12.2 kmh 30.16 in1021.3 mb 0.00 in0.0 mm 0.00 in0.0 mm 0.02 in0.5 mm
01:30 PM 67.0°F19.4°C 36.7°F2.6°C 33% 6.0 mph N9.7 kmh N 10.1 mph16.3 kmh 30.17 in1021.7 mb 0.00 in0.0 mm 0.00 in0.0 mm 0.02 in0.5 mm
01:27 PM 67.4°F19.7°C 37.5°F3.1°C 33% 7.1 mph N11.4 kmh N 12.5 mph20.1 kmh 30.16 in1021.3 mb 0.00 in0.0 mm 0.00 in0.0 mm 0.02 in0.5 mm
01:24 PM 67.3°F19.6°C 37.5°F3.1°C 33% 3.7 mph N6.0 kmh N 4.9 mph7.9 kmh 30.18 in1022.0 mb 0.00 in0.0 mm 0.00 in0.0 mm 0.02 in0.5 mm
01:21 PM 67.8°F19.9°C 37.8°F3.2°C 33% 7.3 mph NW11.7 kmh NW 15.0 mph24.1 kmh 30.17 in1021.7 mb 0.00 in0.0 mm 0.00 in0.0 mm 0.02 in0.5 mm
01:18 PM 67.3°F19.6°C 37.2°F2.9°C 33% 1.9 mph N3.1 kmh N 7.6 mph12.2 kmh 30.18 in1022.0 mb 0.00 in0.0 mm 0.00 in0.0 mm 0.02 in0.5 mm
01:15 PM 67.1°F19.5°C 37.1°F2.8°C 33% 7.6 mph N12.2 kmh N 12.5 mph20.1 kmh 30.18 in1022.0 mb 0.00 in0.0 mm 0.00 in0.0 mm 0.02 in0.5 mm
01:12 PM 66.9°F19.4°C 37.2°F2.9°C 34% 5.7 mph NW9.2 kmh NW 15.0 mph24.1 kmh 30.18 in1022.0 mb 0.00 in0.0 mm 0.00 in0.0 mm 0.02 in0.5 mm
01:09 PM 67.0°F19.4°C 38.3°F3.5°C 35% 4.9 mph NNE7.9 kmh NNE 15.0 mph24.1 kmh 30.18 in1022.0 mb 0.00 in0.0 mm 0.00 in0.0 mm 0.02 in0.5 mm
01:06 PM 66.2°F19.0°C 37.0°F2.8°C 34% 5.2 mph N8.4 kmh N 7.6 mph12.2 kmh 30.18 in1022.0 mb 0.00 in0.0 mm 0.00 in0.0 mm 0.02 in0.5 mm
01:03 PM 66.4°F19.1°C 37.5°F3.1°C 34% 6.7 mph NNW10.8 kmh NNW 10.1 mph16.3 kmh 30.18 in1022.0 mb 0.00 in0.0 mm 0.00 in0.0 mm 0.02 in0.5 mm
01:00 PM 67.1°F19.5°C 39.9°F4.4°C 37% 3.4 mph N5.5 kmh N 10.1 mph16.3 kmh 30.18 in1022.0 mb 0.00 in0.0 mm 0.00 in0.0 mm 0.02 in0.5 mm
12:57 PM 66.5°F19.2°C 38.4°F3.6°C 36% 2.8 mph NNW4.5 kmh NNW 4.9 mph7.9 kmh 30.18 in1022.0 mb 0.00 in0.0 mm 0.00 in0.0 mm 0.02 in0.5 mm
12:54 PM 64.6°F18.1°C 36.7°F2.6°C 36% 4.0 mph 6.4 kmh 7.6 mph12.2 kmh 30.19 in1022.4 mb 0.00 in0.0 mm 0.00 in0.0 mm 0.02 in0.5 mm
12:51 PM 65.2°F18.4°C 36.5°F2.5°C 34% 5.4 mph WNW8.7 kmh WNW 10.1 mph16.3 kmh 30.18 in1022.0 mb 0.00 in0.0 mm 0.00 in0.0 mm 0.02 in0.5 mm
12:48 PM 65.6°F18.7°C 37.0°F2.8°C 35% 6.1 mph N9.8 kmh N 10.1 mph16.3 kmh 30.18 in1022.0 mb 0.00 in0.0 mm 0.00 in0.0 mm 0.02 in0.5 mm
12:45 PM 65.9°F18.8°C 38.0°F3.3°C 36% 6.8 mph N10.9 kmh N 10.1 mph16.3 kmh 30.18 in1022.0 mb 0.00 in0.0 mm 0.00 in0.0 mm 0.02 in0.5 mm
12:42 PM 65.6°F18.7°C 37.7°F3.2°C 36% 4.4 mph N7.1 kmh N 7.6 mph12.2 kmh 30.18 in1022.0 mb 0.00 in0.0 mm 0.00 in0.0 mm 0.02 in0.5 mm
12:39 PM 65.2°F18.4°C 36.9°F2.7°C 35% 5.6 mph N9.0 kmh N 12.5 mph20.1 kmh 30.18 in1022.0 mb 0.00 in0.0 mm 0.00 in0.0 mm 0.02 in0.5 mm
12:36 PM 65.6°F18.7°C 37.9°F3.3°C 36% 6.5 mph 10.5 kmh 10.1 mph16.3 kmh 30.18 in1022.0 mb 0.00 in0.0 mm 0.00 in0.0 mm 0.02 in0.5 mm
12:33 PM 65.6°F18.7°C 38.6°F3.7°C 37% 7.4 mph N11.9 kmh N 10.1 mph16.3 kmh 30.18 in1022.0 mb 0.00 in0.0 mm 0.00 in0.0 mm 0.02 in0.5 mm
12:30 PM 65.0°F18.3°C 37.1°F2.8°C 36% 8.3 mph N13.4 kmh N 15.0 mph24.1 kmh 30.18 in1022.0 mb 0.00 in0.0 mm 0.00 in0.0 mm 0.02 in0.5 mm
12:27 PM 65.1°F18.4°C 36.9°F2.7°C 35% 4.8 mph NNW7.7 kmh NNW 10.1 mph16.3 kmh 30.19 in1022.4 mb 0.00 in0.0 mm 0.00 in0.0 mm 0.02 in0.5 mm
12:24 PM 64.9°F18.3°C 36.8°F2.7°C 35% 6.8 mph NW10.9 kmh NW 12.5 mph20.1 kmh 30.19 in1022.4 mb 0.00 in0.0 mm 0.00 in0.0 mm 0.02 in0.5 mm
12:21 PM 65.5°F18.6°C 37.8°F3.2°C 36% 8.7 mph N14.0 kmh N 12.5 mph20.1 kmh 30.19 in1022.4 mb 0.00 in0.0 mm 0.00 in0.0 mm 0.02 in0.5 mm
12:18 PM 65.2°F18.4°C 37.4°F3.0°C 36% 4.6 mph N7.4 kmh N 10.1 mph16.3 kmh 30.20 in1022.7 mb 0.00 in0.0 mm 0.00 in0.0 mm 0.02 in0.5 mm
12:15 PM 65.6°F18.7°C 38.6°F3.7°C 37% 5.7 mph NE9.2 kmh NE 10.1 mph16.3 kmh 30.20 in1022.7 mb 0.00 in0.0 mm 0.00 in0.0 mm 0.02 in0.5 mm
12:12 PM 65.4°F18.6°C 38.6°F3.7°C 37% 6.8 mph N10.9 kmh N 15.0 mph24.1 kmh 30.19 in1022.4 mb 0.00 in0.0 mm 0.00 in0.0 mm 0.02 in0.5 mm
12:09 PM 63.8°F17.7°C 36.7°F2.6°C 36% 2.9 mph NNW4.7 kmh NNW 4.9 mph7.9 kmh 30.19 in1022.4 mb 0.00 in0.0 mm 0.00 in0.0 mm 0.02 in0.5 mm
12:06 PM 63.5°F17.5°C 36.4°F2.4°C 36% 5.3 mph N8.5 kmh N 12.5 mph20.1 kmh 30.20 in1022.7 mb 0.00 in0.0 mm 0.00 in0.0 mm 0.02 in0.5 mm
12:03 PM 63.1°F17.3°C 36.8°F2.7°C 38% 5.3 mph ENE8.5 kmh ENE 10.1 mph16.3 kmh 30.19 in1022.4 mb 0.00 in0.0 mm 0.00 in0.0 mm 0.02 in0.5 mm
12:00 PM 63.0°F17.2°C 36.7°F2.6°C 38% 10.0 mph N16.1 kmh N 22.6 mph36.4 kmh 30.19 in1022.4 mb 0.00 in0.0 mm 0.00 in0.0 mm 0.02 in0.5 mm
11:57 AM 62.8°F17.1°C 36.4°F2.4°C 37% 4.0 mph NNE6.4 kmh NNE 10.1 mph16.3 kmh 30.19 in1022.4 mb 0.00 in0.0 mm 0.00 in0.0 mm 0.02 in0.5 mm
11:54 AM 62.5°F16.9°C 35.9°F2.2°C 37% 4.5 mph N7.2 kmh N 7.6 mph12.2 kmh 30.19 in1022.4 mb 0.00 in0.0 mm 0.00 in0.0 mm 0.02 in0.5 mm
11:51 AM 62.4°F16.9°C 36.0°F2.2°C 37% 5.5 mph NE8.9 kmh NE 7.6 mph12.2 kmh 30.19 in1022.4 mb 0.00 in0.0 mm 0.00 in0.0 mm 0.02 in0.5 mm
11:48 AM 62.6°F17.0°C 36.6°F2.6°C 38% 7.9 mph N12.7 kmh N 12.5 mph20.1 kmh 30.19 in1022.4 mb 0.00 in0.0 mm 0.00 in0.0 mm 0.02 in0.5 mm
11:45 AM 62.2°F16.8°C 36.3°F2.4°C 38% 5.0 mph N8.0 kmh N 10.1 mph16.3 kmh 30.19 in1022.4 mb 0.00 in0.0 mm 0.00 in0.0 mm 0.02 in0.5 mm
11:42 AM 62.5°F16.9°C 36.5°F2.5°C 38% 8.3 mph NNE13.4 kmh NNE 17.4 mph28.0 kmh 30.19 in1022.4 mb 0.00 in0.0 mm 0.00 in0.0 mm 0.02 in0.5 mm
11:39 AM 63.3°F17.4°C 37.1°F2.8°C 38% 5.4 mph N8.7 kmh N 12.5 mph20.1 kmh 30.19 in1022.4 mb 0.00 in0.0 mm 0.00 in0.0 mm 0.02 in0.5 mm
11:36 AM 64.2°F17.9°C 38.2°F3.4°C 38% 6.2 mph 10.0 kmh 12.5 mph20.1 kmh 30.19 in1022.4 mb 0.00 in0.0 mm 0.00 in0.0 mm 0.02 in0.5 mm
11:33 AM 64.0°F17.8°C 37.6°F3.1°C 38% 7.7 mph N12.4 kmh N 17.4 mph28.0 kmh 30.19 in1022.4 mb 0.00 in0.0 mm 0.00 in0.0 mm 0.02 in0.5 mm
11:30 AM 64.1°F17.8°C 37.2°F2.9°C 37% 8.1 mph NE13.0 kmh NE 17.4 mph28.0 kmh 30.19 in1022.4 mb 0.00 in0.0 mm 0.00 in0.0 mm 0.02 in0.5 mm
11:27 AM 64.0°F17.8°C 37.2°F2.9°C 37% 5.9 mph N9.5 kmh N 12.5 mph20.1 kmh 30.20 in1022.7 mb 0.00 in0.0 mm 0.00 in0.0 mm 0.02 in0.5 mm
11:24 AM 64.0°F17.8°C 37.2°F2.9°C 37% 5.0 mph NNW8.0 kmh NNW 7.6 mph12.2 kmh 30.20 in1022.7 mb 0.00 in0.0 mm 0.00 in0.0 mm 0.02 in0.5 mm
11:21 AM 63.8°F17.7°C 36.4°F2.4°C 36% 5.9 mph N9.5 kmh N 10.1 mph16.3 kmh 30.20 in1022.7 mb 0.00 in0.0 mm 0.00 in0.0 mm 0.02 in0.5 mm
11:18 AM 64.0°F17.8°C 37.1°F2.8°C 37% 7.5 mph NNW12.1 kmh NNW 20.1 mph32.3 kmh 30.20 in1022.7 mb 0.00 in0.0 mm 0.00 in0.0 mm 0.02 in0.5 mm
11:15 AM 63.7°F17.6°C 37.0°F2.8°C 37% 7.6 mph N12.2 kmh N 20.1 mph32.3 kmh 30.20 in1022.7 mb 0.00 in0.0 mm 0.00 in0.0 mm 0.02 in0.5 mm
11:12 AM 63.7°F17.6°C 37.4°F3.0°C 38% 10.0 mph NNW16.1 kmh NNW 20.1 mph32.3 kmh 30.20 in1022.7 mb 0.00 in0.0 mm 0.00 in0.0 mm 0.02 in0.5 mm
11:09 AM 63.8°F17.7°C 37.7°F3.2°C 38% 9.5 mph N15.3 kmh N 20.1 mph32.3 kmh 30.20 in1022.7 mb 0.00 in0.0 mm 0.00 in0.0 mm 0.02 in0.5 mm
11:06 AM 64.0°F17.8°C 38.2°F3.4°C 38% 8.2 mph NNW13.2 kmh NNW 12.5 mph20.1 kmh 30.20 in1022.7 mb 0.00 in0.0 mm 0.00 in0.0 mm 0.02 in0.5 mm
11:03 AM 63.7°F17.6°C 37.6°F3.1°C 38% 6.6 mph N10.6 kmh N 10.1 mph16.3 kmh 30.21 in1023.0 mb 0.00 in0.0 mm 0.00 in0.0 mm 0.02 in0.5 mm
11:00 AM 63.5°F17.5°C 37.4°F3.0°C 38% 4.0 mph NNE6.4 kmh NNE 12.5 mph20.1 kmh 30.20 in1022.7 mb 0.00 in0.0 mm 0.00 in0.0 mm 0.02 in0.5 mm
10:57 AM 63.3°F17.4°C 37.5°F3.1°C 38% 10.2 mph N16.4 kmh N 12.5 mph20.1 kmh 30.21 in1023.0 mb 0.00 in0.0 mm 0.00 in0.0 mm 0.02 in0.5 mm
10:54 AM 63.9°F17.7°C 38.8°F3.8°C 40% 8.2 mph NNE13.2 kmh NNE 12.5 mph20.1 kmh 30.20 in1022.7 mb 0.00 in0.0 mm 0.00 in0.0 mm 0.02 in0.5 mm
10:51 AM 63.3°F17.4°C 37.9°F3.3°C 39% 6.7 mph N10.8 kmh N 10.1 mph16.3 kmh 30.20 in1022.7 mb 0.00 in0.0 mm 0.00 in0.0 mm 0.02 in0.5 mm
10:48 AM 63.0°F17.2°C 37.0°F2.8°C 38% 9.0 mph N14.5 kmh N 15.0 mph24.1 kmh 30.20 in1022.7 mb 0.00 in0.0 mm 0.00 in0.0 mm 0.02 in0.5 mm
10:45 AM 63.4°F17.4°C 37.8°F3.2°C 39% 8.8 mph N14.2 kmh N 15.0 mph24.1 kmh 30.20 in1022.7 mb 0.00 in0.0 mm 0.00 in0.0 mm 0.02 in0.5 mm
10:42 AM 64.0°F17.8°C 38.5°F3.6°C 39% 4.8 mph N7.7 kmh N 10.1 mph16.3 kmh 30.20 in1022.7 mb 0.00 in0.0 mm 0.00 in0.0 mm 0.02 in0.5 mm
10:39 AM 63.7°F17.6°C 38.5°F3.6°C 39% 5.6 mph NE9.0 kmh NE 10.1 mph16.3 kmh 30.20 in1022.7 mb 0.00 in0.0 mm 0.00 in0.0 mm 0.02 in0.5 mm
10:36 AM 63.3°F17.4°C 38.2°F3.4°C 40% 8.8 mph NNE14.2 kmh NNE 15.0 mph24.1 kmh 30.20 in1022.7 mb 0.00 in0.0 mm 0.00 in0.0 mm 0.02 in0.5 mm
10:33 AM 63.0°F17.2°C 38.3°F3.5°C 40% 2.2 mph N3.5 kmh N 7.6 mph12.2 kmh 30.20 in1022.7 mb 0.00 in0.0 mm 0.00 in0.0 mm 0.02 in0.5 mm
10:30 AM 61.9°F16.6°C 37.3°F2.9°C 40% 4.7 mph NE7.6 kmh NE 10.1 mph16.3 kmh 30.20 in1022.7 mb 0.00 in0.0 mm 0.00 in0.0 mm 0.02 in0.5 mm
10:27 AM 62.0°F16.7°C 38.6°F3.7°C 42% 6.0 mph ENE9.7 kmh ENE 15.0 mph24.1 kmh 30.20 in1022.7 mb 0.00 in0.0 mm 0.00 in0.0 mm 0.02 in0.5 mm
10:24 AM 61.8°F16.6°C 38.4°F3.6°C 42% 3.7 mph N6.0 kmh N 7.6 mph12.2 kmh 30.20 in1022.7 mb 0.00 in0.0 mm 0.00 in0.0 mm 0.02 in0.5 mm
10:21 AM 61.5°F16.4°C 38.9°F3.8°C 43% 7.1 mph NE11.4 kmh NE 12.5 mph20.1 kmh 30.19 in1022.4 mb 0.00 in0.0 mm 0.00 in0.0 mm 0.02 in0.5 mm
10:18 AM 61.4°F16.3°C 39.0°F3.9°C 44% 3.0 mph NW4.8 kmh NW 4.9 mph7.9 kmh 30.19 in1022.4 mb 0.00 in0.0 mm 0.00 in0.0 mm 0.02 in0.5 mm
10:15 AM 61.3°F16.3°C 38.2°F3.4°C 42% 5.3 mph N8.5 kmh N 10.1 mph16.3 kmh 30.19 in1022.4 mb 0.00 in0.0 mm 0.00 in0.0 mm 0.02 in0.5 mm
10:12 AM 61.4°F16.3°C 38.3°F3.5°C 42% 5.5 mph NE8.9 kmh NE 12.5 mph20.1 kmh 30.19 in1022.4 mb 0.00 in0.0 mm 0.00 in0.0 mm 0.02 in0.5 mm
10:09 AM 61.2°F16.2°C 37.9°F3.3°C 42% 6.2 mph N10.0 kmh N 10.1 mph16.3 kmh 30.19 in1022.4 mb 0.00 in0.0 mm 0.00 in0.0 mm 0.02 in0.5 mm
10:06 AM 61.0°F16.1°C 37.8°F3.2°C 42% 7.3 mph NE11.7 kmh NE 12.5 mph20.1 kmh 30.19 in1022.4 mb 0.00 in0.0 mm 0.00 in0.0 mm 0.02 in0.5 mm
10:03 AM 61.3°F16.3°C 38.4°F3.6°C 43% 6.1 mph NNE9.8 kmh NNE 17.4 mph28.0 kmh 30.20 in1022.7 mb 0.00 in0.0 mm 0.00 in0.0 mm 0.02 in0.5 mm
10:00 AM 61.2°F16.2°C 38.4°F3.6°C 43% 5.3 mph N8.5 kmh N 10.1 mph16.3 kmh 30.20 in1022.7 mb 0.00 in0.0 mm 0.00 in0.0 mm 0.02 in0.5 mm
09:57 AM 61.5°F16.4°C 39.1°F3.9°C 44% 6.6 mph N10.6 kmh N 10.1 mph16.3 kmh 30.20 in1022.7 mb 0.00 in0.0 mm 0.00 in0.0 mm 0.02 in0.5 mm
09:54 AM 61.2°F16.2°C 38.7°F3.7°C 43% 4.2 mph NE6.8 kmh NE 7.6 mph12.2 kmh 30.19 in1022.4 mb 0.00 in0.0 mm 0.00 in0.0 mm 0.02 in0.5 mm
09:51 AM 61.1°F16.2°C 38.3°F3.5°C 43% 5.5 mph N8.9 kmh N 15.0 mph24.1 kmh 30.19 in1022.4 mb 0.00 in0.0 mm 0.00 in0.0 mm 0.02 in0.5 mm
09:48 AM 61.1°F16.2°C 38.4°F3.6°C 43% 4.3 mph NW6.9 kmh NW 7.6 mph12.2 kmh 30.19 in1022.4 mb 0.00 in0.0 mm 0.00 in0.0 mm 0.02 in0.5 mm
09:45 AM 60.8°F16.0°C 38.2°F3.4°C 43% 4.3 mph NW6.9 kmh NW 7.6 mph12.2 kmh 30.19 in1022.4 mb 0.00 in0.0 mm 0.00 in0.0 mm 0.02 in0.5 mm
09:42 AM 60.8°F16.0°C 38.5°F3.6°C 44% 8.3 mph NE13.4 kmh NE 12.5 mph20.1 kmh 30.18 in1022.0 mb 0.00 in0.0 mm 0.00 in0.0 mm 0.02 in0.5 mm
09:39 AM 60.8°F16.0°C 39.4°F4.1°C 45% 4.4 mph N7.1 kmh N 12.5 mph20.1 kmh 30.18 in1022.0 mb 0.00 in0.0 mm 0.00 in0.0 mm 0.02 in0.5 mm
09:36 AM 60.9°F16.1°C 39.7°F4.3°C 46% 6.1 mph NE9.8 kmh NE 10.1 mph16.3 kmh 30.18 in1022.0 mb 0.00 in0.0 mm 0.00 in0.0 mm 0.02 in0.5 mm
09:33 AM 61.1°F16.2°C 39.9°F4.4°C 46% 5.2 mph NNW8.4 kmh NNW 7.6 mph12.2 kmh 30.18 in1022.0 mb 0.00 in0.0 mm 0.00 in0.0 mm 0.02 in0.5 mm
09:30 AM 61.0°F16.1°C 40.0°F4.4°C 46% 3.0 mph NNW4.8 kmh NNW 7.6 mph12.2 kmh 30.18 in1022.0 mb 0.00 in0.0 mm 0.00 in0.0 mm 0.02 in0.5 mm
09:27 AM 60.5°F15.8°C 39.8°F4.3°C 46% 5.3 mph NW8.5 kmh NW 10.1 mph16.3 kmh 30.17 in1021.7 mb 0.00 in0.0 mm 0.00 in0.0 mm 0.02 in0.5 mm
09:24 AM 60.5°F15.8°C 40.8°F4.9°C 48% 9.3 mph N15.0 kmh N 15.0 mph24.1 kmh 30.18 in1022.0 mb 0.00 in0.0 mm 0.00 in0.0 mm 0.02 in0.5 mm
09:21 AM 60.4°F15.8°C 41.8°F5.4°C 50% 4.3 mph NNW6.9 kmh NNW 10.1 mph16.3 kmh 30.17 in1021.7 mb 0.00 in0.0 mm 0.00 in0.0 mm 0.02 in0.5 mm
09:18 AM 60.6°F15.9°C 42.3°F5.7°C 51% 4.2 mph NNW6.8 kmh NNW 7.6 mph12.2 kmh 30.16 in1021.3 mb 0.00 in0.0 mm 0.00 in0.0 mm 0.02 in0.5 mm
09:15 AM 60.5°F15.8°C 42.2°F5.7°C 51% 3.6 mph WNW5.8 kmh WNW 7.6 mph12.2 kmh 30.16 in1021.3 mb 0.00 in0.0 mm 0.00 in0.0 mm 0.02 in0.5 mm
09:12 AM 60.3°F15.7°C 42.1°F5.6°C 51% 4.2 mph N6.8 kmh N 7.6 mph12.2 kmh 30.17 in1021.7 mb 0.00 in0.0 mm 0.00 in0.0 mm 0.02 in0.5 mm
09:09 AM 60.2°F15.7°C 42.0°F5.6°C 51% 3.9 mph N6.3 kmh N 7.6 mph12.2 kmh 30.16 in1021.3 mb 0.00 in0.0 mm 0.00 in0.0 mm 0.02 in0.5 mm
09:06 AM 60.1°F15.6°C 41.9°F5.5°C 51% 5.4 mph N8.7 kmh N 10.1 mph16.3 kmh 30.16 in1021.3 mb 0.00 in0.0 mm 0.00 in0.0 mm 0.02 in0.5 mm
09:03 AM 60.1°F15.6°C 42.0°F5.6°C 51% 3.0 mph NW4.8 kmh NW 4.9 mph7.9 kmh 30.16 in1021.3 mb 0.00 in0.0 mm 0.00 in0.0 mm 0.02 in0.5 mm
09:00 AM 60.1°F15.6°C 41.9°F5.5°C 51% 3.5 mph N5.6 kmh N 4.9 mph7.9 kmh 30.16 in1021.3 mb 0.00 in0.0 mm 0.00 in0.0 mm 0.02 in0.5 mm
08:57 AM 59.9°F15.5°C 42.5°F5.8°C 52% 5.3 mph NNW8.5 kmh NNW 10.1 mph16.3 kmh 30.16 in1021.3 mb 0.00 in0.0 mm 0.00 in0.0 mm 0.02 in0.5 mm
08:54 AM 59.9°F15.5°C 43.0°F6.1°C 54% 4.7 mph N7.6 kmh N 10.1 mph16.3 kmh 30.15 in1021.0 mb 0.00 in0.0 mm 0.00 in0.0 mm 0.02 in0.5 mm
08:51 AM 59.9°F15.5°C 43.6°F6.4°C 55% 2.0 mph NNW3.2 kmh NNW 4.9 mph7.9 kmh 30.15 in1021.0 mb 0.00 in0.0 mm 0.00 in0.0 mm 0.02 in0.5 mm
08:48 AM 59.9°F15.5°C 44.0°F6.7°C 56% 2.7 mph NNW4.3 kmh NNW 4.9 mph7.9 kmh 30.15 in1021.0 mb 0.00 in0.0 mm 0.00 in0.0 mm 0.02 in0.5 mm
08:45 AM 59.9°F15.5°C 43.8°F6.6°C 55% 0.9 mph NW1.4 kmh NW 2.5 mph4.0 kmh 30.15 in1021.0 mb 0.00 in0.0 mm 0.00 in0.0 mm 0.02 in0.5 mm
08:42 AM 60.0°F15.6°C 42.9°F6.1°C 53% 3.6 mph NNW5.8 kmh NNW 7.6 mph12.2 kmh 30.15 in1021.0 mb 0.00 in0.0 mm 0.00 in0.0 mm 0.02 in0.5 mm
08:39 AM 60.1°F15.6°C 42.4°F5.8°C 52% 3.3 mph N5.3 kmh N 10.1 mph16.3 kmh 30.15 in1021.0 mb 0.00 in0.0 mm 0.00 in0.0 mm 0.02 in0.5 mm
08:36 AM 60.3°F15.7°C 42.1°F5.6°C 51% 2.7 mph NNW4.3 kmh NNW 7.6 mph12.2 kmh 30.15 in1021.0 mb 0.00 in0.0 mm 0.00 in0.0 mm 0.02 in0.5 mm
08:33 AM 60.3°F15.7°C 42.1°F5.6°C 51% 2.5 mph NNW4.0 kmh NNW 4.9 mph7.9 kmh 30.15 in1021.0 mb 0.00 in0.0 mm 0.00 in0.0 mm 0.02 in0.5 mm
08:30 AM 60.4°F15.8°C 41.8°F5.4°C 50% 1.9 mph N3.1 kmh N 4.9 mph7.9 kmh 30.14 in1020.7 mb 0.00 in0.0 mm 0.00 in0.0 mm 0.02 in0.5 mm
08:27 AM 60.4°F15.8°C 41.7°F5.4°C 50% 4.3 mph N6.9 kmh N 10.1 mph16.3 kmh 30.15 in1021.0 mb 0.00 in0.0 mm 0.00 in0.0 mm 0.02 in0.5 mm
08:24 AM 60.4°F15.8°C 41.8°F5.4°C 50% 5.6 mph N9.0 kmh N 10.1 mph16.3 kmh 30.14 in1020.7 mb 0.00 in0.0 mm 0.00 in0.0 mm 0.02 in0.5 mm
08:21 AM 60.4°F15.8°C 42.2°F5.7°C 51% 0.6 mph W1.0 kmh W 2.5 mph4.0 kmh 30.14 in1020.7 mb 0.00 in0.0 mm 0.00 in0.0 mm 0.02 in0.5 mm
08:18 AM 60.4°F15.8°C 42.5°F5.8°C 52% 6.8 mph NNW10.9 kmh NNW 12.5 mph20.1 kmh 30.14 in1020.7 mb 0.00 in0.0 mm 0.00 in0.0 mm 0.02 in0.5 mm
08:15 AM 60.4°F15.8°C 42.7°F5.9°C 52% 2.9 mph N4.7 kmh N 4.9 mph7.9 kmh 30.13 in1020.3 mb 0.00 in0.0 mm 0.00 in0.0 mm 0.02 in0.5 mm
08:12 AM 60.4°F15.8°C 42.9°F6.1°C 52% 3.8 mph N6.1 kmh N 7.6 mph12.2 kmh 30.14 in1020.7 mb 0.00 in0.0 mm 0.00 in0.0 mm 0.02 in0.5 mm
08:09 AM 60.6°F15.9°C 42.8°F6.0°C 52% 3.8 mph N6.1 kmh N 7.6 mph12.2 kmh 30.13 in1020.3 mb 0.00 in0.0 mm 0.00 in0.0 mm 0.02 in0.5 mm
08:06 AM 60.4°F15.8°C 42.7°F5.9°C 52% 2.7 mph NE4.3 kmh NE 4.9 mph7.9 kmh 30.13 in1020.3 mb 0.00 in0.0 mm 0.00 in0.0 mm 0.02 in0.5 mm
08:03 AM 60.4°F15.8°C 42.7°F5.9°C 52% 4.7 mph NNW7.6 kmh NNW 7.6 mph12.2 kmh 30.13 in1020.3 mb 0.00 in0.0 mm 0.00 in0.0 mm 0.02 in0.5 mm
08:00 AM 60.3°F15.7°C 42.7°F5.9°C 52% 2.5 mph NW4.0 kmh NW 4.9 mph7.9 kmh 30.13 in1020.3 mb 0.00 in0.0 mm 0.00 in0.0 mm 0.02 in0.5 mm
07:57 AM 60.4°F15.8°C 42.3°F5.7°C 51% 1.8 mph N2.9 kmh N 2.5 mph4.0 kmh 30.12 in1020.0 mb 0.00 in0.0 mm 0.00 in0.0 mm 0.02 in0.5 mm
07:54 AM 60.6°F15.9°C 42.3°F5.7°C 51% 3.0 mph NW4.8 kmh NW 7.6 mph12.2 kmh 30.12 in1020.0 mb 0.00 in0.0 mm 0.00 in0.0 mm 0.02 in0.5 mm
07:51 AM 60.6°F15.9°C 42.4°F5.8°C 51% 5.3 mph N8.5 kmh N 7.6 mph12.2 kmh 30.12 in1020.0 mb 0.00 in0.0 mm 0.00 in0.0 mm 0.02 in0.5 mm
07:48 AM 60.9°F16.1°C 42.8°F6.0°C 51% 0.8 mph N1.3 kmh N 7.6 mph12.2 kmh 30.13 in1020.3 mb 0.00 in0.0 mm 0.00 in0.0 mm 0.02 in0.5 mm
07:45 AM 61.0°F16.1°C 42.7°F5.9°C 51% 5.1 mph N8.2 kmh N 7.6 mph12.2 kmh 30.12 in1020.0 mb 0.00 in0.0 mm 0.00 in0.0 mm 0.02 in0.5 mm
07:42 AM 60.8°F16.0°C 43.0°F6.1°C 52% 5.3 mph NW8.5 kmh NW 12.5 mph20.1 kmh 30.12 in1020.0 mb 0.00 in0.0 mm 0.00 in0.0 mm 0.02 in0.5 mm
07:39 AM 60.8°F16.0°C 43.3°F6.3°C 52% 1.8 mph N2.9 kmh N 10.1 mph16.3 kmh 30.11 in1019.6 mb 0.00 in0.0 mm 0.00 in0.0 mm 0.02 in0.5 mm
07:36 AM 61.0°F16.1°C 43.2°F6.2°C 52% 3.3 mph N5.3 kmh N 7.6 mph12.2 kmh 30.12 in1020.0 mb 0.00 in0.0 mm 0.00 in0.0 mm 0.02 in0.5 mm
07:33 AM 61.0°F16.1°C 42.8°F6.0°C 51% 3.6 mph NW5.8 kmh NW 4.9 mph7.9 kmh 30.11 in1019.6 mb 0.00 in0.0 mm 0.00 in0.0 mm 0.02 in0.5 mm
07:30 AM 61.1°F16.2°C 42.3°F5.7°C 50% 2.8 mph NNW4.5 kmh NNW 4.9 mph7.9 kmh 30.11 in1019.6 mb 0.00 in0.0 mm 0.00 in0.0 mm 0.02 in0.5 mm
07:27 AM 61.2°F16.2°C 42.1°F5.6°C 49% 4.9 mph N7.9 kmh N 10.1 mph16.3 kmh 30.11 in1019.6 mb 0.00 in0.0 mm 0.00 in0.0 mm 0.02 in0.5 mm
07:24 AM 61.3°F16.3°C 42.0°F5.6°C 49% 4.3 mph NW6.9 kmh NW 10.1 mph16.3 kmh 30.11 in1019.6 mb 0.00 in0.0 mm 0.00 in0.0 mm 0.02 in0.5 mm
07:21 AM 61.6°F16.4°C 42.3°F5.7°C 49% 5.0 mph NNE8.0 kmh NNE 7.6 mph12.2 kmh 30.10 in1019.3 mb 0.00 in0.0 mm 0.00 in0.0 mm 0.02 in0.5 mm
07:18 AM 61.6°F16.4°C 42.3°F5.7°C 49% 4.4 mph NW7.1 kmh NW 7.6 mph12.2 kmh 30.11 in1019.6 mb 0.00 in0.0 mm 0.00 in0.0 mm 0.02 in0.5 mm
07:15 AM 61.8°F16.6°C 42.5°F5.8°C 49% 4.2 mph N6.8 kmh N 7.6 mph12.2 kmh 30.11 in1019.6 mb 0.00 in0.0 mm 0.00 in0.0 mm 0.02 in0.5 mm
07:12 AM 61.8°F16.6°C 43.6°F6.4°C 51% 7.4 mph N11.9 kmh N 12.5 mph20.1 kmh 30.11 in1019.6 mb 0.00 in0.0 mm 0.00 in0.0 mm 0.02 in0.5 mm
07:09 AM 61.7°F16.5°C 43.9°F6.6°C 52% 3.4 mph NNW5.5 kmh NNW 4.9 mph7.9 kmh 30.11 in1019.6 mb 0.00 in0.0 mm 0.00 in0.0 mm 0.02 in0.5 mm
07:06 AM 61.9°F16.6°C 44.1°F6.7°C 52% 2.8 mph N4.5 kmh N 10.1 mph16.3 kmh 30.10 in1019.3 mb 0.00 in0.0 mm 0.00 in0.0 mm 0.02 in0.5 mm
07:03 AM 62.0°F16.7°C 43.8°F6.6°C 51% 3.0 mph NW4.8 kmh NW 7.6 mph12.2 kmh 30.11 in1019.6 mb 0.00 in0.0 mm 0.00 in0.0 mm 0.02 in0.5 mm
07:00 AM 62.1°F16.7°C 43.8°F6.6°C 51% 5.4 mph NW8.7 kmh NW 10.1 mph16.3 kmh 30.11 in1019.6 mb 0.00 in0.0 mm 0.00 in0.0 mm 0.02 in0.5 mm
06:57 AM 62.1°F16.7°C 43.8°F6.6°C 51% 4.1 mph N6.6 kmh N 7.6 mph12.2 kmh 30.10 in1019.3 mb 0.00 in0.0 mm 0.00 in0.0 mm 0.02 in0.5 mm
06:54 AM 62.2°F16.8°C 43.8°F6.6°C 51% 3.4 mph NNW5.5 kmh NNW 7.6 mph12.2 kmh 30.10 in1019.3 mb 0.00 in0.0 mm 0.00 in0.0 mm 0.02 in0.5 mm
06:51 AM 62.2°F16.8°C 43.9°F6.6°C 51% 5.8 mph N9.3 kmh N 10.1 mph16.3 kmh 30.10 in1019.3 mb 0.00 in0.0 mm 0.00 in0.0 mm 0.02 in0.5 mm
06:48 AM 62.4°F16.9°C 44.2°F6.8°C 51% 4.5 mph N7.2 kmh N 10.1 mph16.3 kmh 30.09 in1019.0 mb 0.00 in0.0 mm 0.00 in0.0 mm 0.02 in0.5 mm
06:45 AM 62.5°F16.9°C 44.8°F7.1°C 52% 6.5 mph N10.5 kmh N 12.5 mph20.1 kmh 30.09 in1019.0 mb 0.00 in0.0 mm 0.00 in0.0 mm 0.02 in0.5 mm
06:42 AM 62.5°F16.9°C 44.6°F7.0°C 52% 6.2 mph N10.0 kmh N 12.5 mph20.1 kmh 30.09 in1019.0 mb 0.00 in0.0 mm 0.00 in0.0 mm 0.02 in0.5 mm
06:39 AM 62.5°F16.9°C 45.3°F7.4°C 53% 6.9 mph NW11.1 kmh NW 10.1 mph16.3 kmh 30.09 in1019.0 mb 0.00 in0.0 mm 0.00 in0.0 mm 0.02 in0.5 mm
06:36 AM 62.7°F17.1°C 45.2°F7.3°C 53% 3.0 mph N4.8 kmh N 7.6 mph12.2 kmh 30.08 in1018.6 mb 0.00 in0.0 mm 0.00 in0.0 mm 0.02 in0.5 mm
06:33 AM 63.0°F17.2°C 45.0°F7.2°C 52% 4.8 mph N7.7 kmh N 7.6 mph12.2 kmh 30.09 in1019.0 mb 0.00 in0.0 mm 0.00 in0.0 mm 0.02 in0.5 mm
06:30 AM 63.0°F17.2°C 44.8°F7.1°C 51% 6.9 mph N11.1 kmh N 10.1 mph16.3 kmh 30.08 in1018.6 mb 0.00 in0.0 mm 0.00 in0.0 mm 0.02 in0.5 mm
06:27 AM 63.1°F17.3°C 45.0°F7.2°C 52% 6.2 mph NNW10.0 kmh NNW 12.5 mph20.1 kmh 30.09 in1019.0 mb 0.00 in0.0 mm 0.00 in0.0 mm 0.02 in0.5 mm
06:24 AM 63.3°F17.4°C 45.9°F7.7°C 53% 5.0 mph NNW8.0 kmh NNW 15.0 mph24.1 kmh 30.10 in1019.3 mb 0.00 in0.0 mm 0.00 in0.0 mm 0.02 in0.5 mm
06:21 AM 63.3°F17.4°C 46.6°F8.1°C 54% 4.3 mph NNW6.9 kmh NNW 7.6 mph12.2 kmh 30.09 in1019.0 mb 0.00 in0.0 mm 0.00 in0.0 mm 0.02 in0.5 mm
06:18 AM 63.3°F17.4°C 47.2°F8.4°C 56% 5.2 mph NW8.4 kmh NW 10.1 mph16.3 kmh 30.09 in1019.0 mb 0.00 in0.0 mm 0.00 in0.0 mm 0.02 in0.5 mm
06:15 AM 63.5°F17.5°C 47.5°F8.6°C 56% 4.5 mph N7.2 kmh N 7.6 mph12.2 kmh 30.09 in1019.0 mb 0.00 in0.0 mm 0.00 in0.0 mm 0.02 in0.5 mm
06:12 AM 63.5°F17.5°C 47.0°F8.3°C 55% 0.7 mph WNW1.1 kmh WNW 2.5 mph4.0 kmh 30.09 in1019.0 mb 0.00 in0.0 mm 0.00 in0.0 mm 0.02 in0.5 mm
06:09 AM 63.5°F17.5°C 47.0°F8.3°C 55% 3.1 mph NNW5.0 kmh NNW 4.9 mph7.9 kmh 30.08 in1018.6 mb 0.00 in0.0 mm 0.00 in0.0 mm 0.02 in0.5 mm
06:06 AM 63.6°F17.6°C 47.1°F8.4°C 55% 3.4 mph NW5.5 kmh NW 7.6 mph12.2 kmh 30.08 in1018.6 mb 0.00 in0.0 mm 0.00 in0.0 mm 0.02 in0.5 mm
06:03 AM 63.7°F17.6°C 46.9°F8.3°C 54% 5.1 mph N8.2 kmh N 10.1 mph16.3 kmh 30.09 in1019.0 mb 0.00 in0.0 mm 0.00 in0.0 mm 0.02 in0.5 mm
06:00 AM 63.9°F17.7°C 47.0°F8.3°C 54% 0.9 mph NW1.4 kmh NW 4.9 mph7.9 kmh 30.09 in1019.0 mb 0.00 in0.0 mm 0.00 in0.0 mm 0.02 in0.5 mm
05:57 AM 63.7°F17.6°C 47.7°F8.7°C 56% 3.2 mph NE5.1 kmh NE 7.6 mph12.2 kmh 30.09 in1019.0 mb 0.00 in0.0 mm 0.00 in0.0 mm 0.02 in0.5 mm
05:54 AM 63.8°F17.7°C 47.4°F8.6°C 55% 1.1 mph NW1.8 kmh NW 4.9 mph7.9 kmh 30.09 in1019.0 mb 0.00 in0.0 mm 0.00 in0.0 mm 0.02 in0.5 mm
05:51 AM 63.9°F17.7°C 47.1°F8.4°C 54% 4.3 mph N6.9 kmh N 7.6 mph12.2 kmh 30.09 in1019.0 mb 0.00 in0.0 mm 0.00 in0.0 mm 0.02 in0.5 mm
05:48 AM 64.0°F17.8°C 47.0°F8.3°C 54% 4.1 mph NW6.6 kmh NW 10.1 mph16.3 kmh 30.09 in1019.0 mb 0.00 in0.0 mm 0.00 in0.0 mm 0.02 in0.5 mm
05:45 AM 64.0°F17.8°C 47.0°F8.3°C 54% 4.0 mph N6.4 kmh N 10.1 mph16.3 kmh 30.09 in1019.0 mb 0.00 in0.0 mm 0.00 in0.0 mm 0.02 in0.5 mm
05:42 AM 64.0°F17.8°C 47.0°F8.3°C 54% 3.5 mph N5.6 kmh N 7.6 mph12.2 kmh 30.09 in1019.0 mb 0.00 in0.0 mm 0.00 in0.0 mm 0.02 in0.5 mm
05:39 AM 64.2°F17.9°C 46.8°F8.2°C 53% 3.2 mph NNW5.1 kmh NNW 7.6 mph12.2 kmh 30.08 in1018.6 mb 0.00 in0.0 mm 0.00 in0.0 mm 0.02 in0.5 mm
05:36 AM 64.2°F17.9°C 47.2°F8.4°C 54% 4.4 mph NNW7.1 kmh NNW 7.6 mph12.2 kmh 30.08 in1018.6 mb 0.00 in0.0 mm 0.00 in0.0 mm 0.02 in0.5 mm
05:33 AM 64.2°F17.9°C 47.4°F8.6°C 54% 4.2 mph NE6.8 kmh NE 10.1 mph16.3 kmh 30.08 in1018.6 mb 0.00 in0.0 mm 0.00 in0.0 mm 0.02 in0.5 mm
05:30 AM 64.2°F17.9°C 48.8°F9.3°C 57% 6.0 mph NW9.7 kmh NW 15.0 mph24.1 kmh 30.08 in1018.6 mb 0.00 in0.0 mm 0.00 in0.0 mm 0.02 in0.5 mm
05:27 AM 64.2°F17.9°C 49.3°F9.6°C 58% 4.0 mph NNE6.4 kmh NNE 4.9 mph7.9 kmh 30.08 in1018.6 mb 0.00 in0.0 mm 0.00 in0.0 mm 0.02 in0.5 mm
05:24 AM 64.2°F17.9°C 49.1°F9.5°C 58% 5.2 mph NW8.4 kmh NW 10.1 mph16.3 kmh 30.08 in1018.6 mb 0.00 in0.0 mm 0.00 in0.0 mm 0.02 in0.5 mm
05:21 AM 64.3°F17.9°C 49.2°F9.6°C 58% 4.2 mph NNW6.8 kmh NNW 7.6 mph12.2 kmh 30.08 in1018.6 mb 0.00 in0.0 mm 0.00 in0.0 mm 0.02 in0.5 mm
05:18 AM 64.4°F18.0°C 49.3°F9.6°C 58% 4.4 mph N7.1 kmh N 10.1 mph16.3 kmh 30.07 in1018.3 mb 0.00 in0.0 mm 0.00 in0.0 mm 0.02 in0.5 mm
05:15 AM 64.4°F18.0°C 49.3°F9.6°C 58% 2.7 mph N4.3 kmh N 4.9 mph7.9 kmh 30.07 in1018.3 mb 0.00 in0.0 mm 0.00 in0.0 mm 0.02 in0.5 mm
05:12 AM 64.4°F18.0°C 49.3°F9.6°C 58% 4.7 mph N7.6 kmh N 10.1 mph16.3 kmh 30.07 in1018.3 mb 0.00 in0.0 mm 0.00 in0.0 mm 0.02 in0.5 mm
05:09 AM 64.4°F18.0°C 49.8°F9.9°C 59% 4.7 mph NW7.6 kmh NW 10.1 mph16.3 kmh 30.08 in1018.6 mb 0.00 in0.0 mm 0.00 in0.0 mm 0.02 in0.5 mm
05:06 AM 64.4°F18.0°C 49.3°F9.6°C 58% 2.6 mph N4.2 kmh N 7.6 mph12.2 kmh 30.08 in1018.6 mb 0.00 in0.0 mm 0.00 in0.0 mm 0.02 in0.5 mm
05:03 AM 64.5°F18.1°C 49.6°F9.8°C 58% 2.6 mph W4.2 kmh W 4.9 mph7.9 kmh 30.07 in1018.3 mb 0.00 in0.0 mm 0.00 in0.0 mm 0.02 in0.5 mm
05:00 AM 64.6°F18.1°C 49.5°F9.7°C 58% 3.7 mph NNE6.0 kmh NNE 7.6 mph12.2 kmh 30.08 in1018.6 mb 0.00 in0.0 mm 0.00 in0.0 mm 0.02 in0.5 mm
04:57 AM 64.6°F18.1°C 49.5°F9.7°C 58% 4.7 mph NW7.6 kmh NW 12.5 mph20.1 kmh 30.07 in1018.3 mb 0.00 in0.0 mm 0.00 in0.0 mm 0.02 in0.5 mm
04:54 AM 64.6°F18.1°C 49.5°F9.7°C 58% 1.9 mph NW3.1 kmh NW 7.6 mph12.2 kmh 30.07 in1018.3 mb 0.00 in0.0 mm 0.00 in0.0 mm 0.02 in0.5 mm
04:51 AM 64.6°F18.1°C 49.8°F9.9°C 59% 3.3 mph NNE5.3 kmh NNE 7.6 mph12.2 kmh 30.07 in1018.3 mb 0.00 in0.0 mm 0.00 in0.0 mm 0.02 in0.5 mm
04:48 AM 64.6°F18.1°C 49.9°F9.9°C 59% 3.2 mph NW5.1 kmh NW 7.6 mph12.2 kmh 30.07 in1018.3 mb 0.00 in0.0 mm 0.00 in0.0 mm 0.02 in0.5 mm
04:45 AM 64.6°F18.1°C 49.9°F9.9°C 59% 1.0 mph N1.6 kmh N 4.9 mph7.9 kmh 30.06 in1017.9 mb 0.00 in0.0 mm 0.00 in0.0 mm 0.02 in0.5 mm
04:42 AM 64.6°F18.1°C 49.9°F9.9°C 59% 2.5 mph N4.0 kmh N 4.9 mph7.9 kmh 30.06 in1017.9 mb 0.00 in0.0 mm 0.00 in0.0 mm 0.02 in0.5 mm
04:39 AM 64.7°F18.2°C 50.5°F10.3°C 60% 3.7 mph N6.0 kmh N 7.6 mph12.2 kmh 30.06 in1017.9 mb 0.00 in0.0 mm 0.00 in0.0 mm 0.02 in0.5 mm
04:36 AM 64.7°F18.2°C 51.2°F10.7°C 62% 3.9 mph N6.3 kmh N 7.6 mph12.2 kmh 30.05 in1017.6 mb 0.00 in0.0 mm 0.00 in0.0 mm 0.02 in0.5 mm
04:33 AM 64.6°F18.1°C 51.3°F10.7°C 62% 3.5 mph NNW5.6 kmh NNW 7.6 mph12.2 kmh 30.05 in1017.6 mb 0.00 in0.0 mm 0.00 in0.0 mm 0.02 in0.5 mm
04:30 AM 64.8°F18.2°C 51.4°F10.8°C 62% 1.0 mph WNW1.6 kmh WNW 4.9 mph7.9 kmh 30.05 in1017.6 mb 0.00 in0.0 mm 0.00 in0.0 mm 0.02 in0.5 mm
04:27 AM 64.9°F18.3°C 51.6°F10.9°C 62% 2.0 mph NNW3.2 kmh NNW 4.9 mph7.9 kmh 30.05 in1017.6 mb 0.00 in0.0 mm 0.00 in0.0 mm 0.02 in0.5 mm
04:24 AM 64.9°F18.3°C 51.6°F10.9°C 62% 3.4 mph N5.5 kmh N 7.6 mph12.2 kmh 30.04 in1017.3 mb 0.00 in0.0 mm 0.00 in0.0 mm 0.02 in0.5 mm
04:21 AM 64.9°F18.3°C 51.6°F10.9°C 62% 3.5 mph NNW5.6 kmh NNW 10.1 mph16.3 kmh 30.04 in1017.3 mb 0.00 in0.0 mm 0.00 in0.0 mm 0.02 in0.5 mm
04:18 AM 64.9°F18.3°C 51.6°F10.9°C 62% 3.9 mph NW6.3 kmh NW 10.1 mph16.3 kmh 30.04 in1017.3 mb 0.00 in0.0 mm 0.00 in0.0 mm 0.02 in0.5 mm
04:15 AM 64.9°F18.3°C 51.6°F10.9°C 62% 4.9 mph NW7.9 kmh NW 7.6 mph12.2 kmh 30.04 in1017.3 mb 0.00 in0.0 mm 0.00 in0.0 mm 0.02 in0.5 mm
04:12 AM 65.0°F18.3°C 51.5°F10.8°C 62% 0.2 mph NW0.3 kmh NW 2.5 mph4.0 kmh 30.04 in1017.3 mb 0.00 in0.0 mm 0.00 in0.0 mm 0.02 in0.5 mm
04:09 AM 65.0°F18.3°C 51.0°F10.6°C 60% 1.5 mph N2.4 kmh N 7.6 mph12.2 kmh 30.04 in1017.3 mb 0.00 in0.0 mm 0.00 in0.0 mm 0.02 in0.5 mm
04:06 AM 65.1°F18.4°C 50.6°F10.3°C 60% 2.0 mph WNW3.2 kmh WNW 4.9 mph7.9 kmh 30.04 in1017.3 mb 0.00 in0.0 mm 0.00 in0.0 mm 0.02 in0.5 mm
04:03 AM 65.2°F18.4°C 50.2°F10.1°C 58% 1.4 mph NW2.3 kmh NW 4.9 mph7.9 kmh 30.03 in1016.9 mb 0.00 in0.0 mm 0.00 in0.0 mm 0.02 in0.5 mm
04:00 AM 65.3°F18.5°C 50.1°F10.1°C 58% 2.9 mph NNW4.7 kmh NNW 7.6 mph12.2 kmh 30.02 in1016.6 mb 0.00 in0.0 mm 0.00 in0.0 mm 0.02 in0.5 mm
03:57 AM 65.5°F18.6°C 50.5°F10.3°C 58% 3.8 mph N6.1 kmh N 7.6 mph12.2 kmh 30.02 in1016.6 mb 0.00 in0.0 mm 0.00 in0.0 mm 0.02 in0.5 mm
03:54 AM 65.5°F18.6°C 50.7°F10.4°C 59% 1.5 mph NW2.4 kmh NW 4.9 mph7.9 kmh 30.02 in1016.6 mb 0.00 in0.0 mm 0.00 in0.0 mm 0.02 in0.5 mm
03:51 AM 65.6°F18.7°C 50.9°F10.5°C 59% 6.0 mph WNW9.7 kmh WNW 15.0 mph24.1 kmh 30.02 in1016.6 mb 0.00 in0.0 mm 0.00 in0.0 mm 0.02 in0.5 mm
03:48 AM 65.7°F18.7°C 51.0°F10.6°C 59% 4.3 mph NW6.9 kmh NW 10.1 mph16.3 kmh 30.02 in1016.6 mb 0.00 in0.0 mm 0.00 in0.0 mm 0.02 in0.5 mm
03:45 AM 65.7°F18.7°C 51.4°F10.8°C 60% 7.4 mph NNW11.9 kmh NNW 15.0 mph24.1 kmh 30.01 in1016.3 mb 0.00 in0.0 mm 0.00 in0.0 mm 0.02 in0.5 mm
03:42 AM 65.8°F18.8°C 52.5°F11.4°C 62% 6.3 mph N10.1 kmh N 10.1 mph16.3 kmh 30.01 in1016.3 mb 0.00 in0.0 mm 0.00 in0.0 mm 0.02 in0.5 mm
03:39 AM 65.8°F18.8°C 53.2°F11.8°C 64% 4.8 mph N7.7 kmh N 10.1 mph16.3 kmh 30.02 in1016.6 mb 0.00 in0.0 mm 0.00 in0.0 mm 0.02 in0.5 mm
03:36 AM 65.8°F18.8°C 54.2°F12.3°C 66% 6.1 mph N9.8 kmh N 10.1 mph16.3 kmh 30.01 in1016.3 mb 0.00 in0.0 mm 0.00 in0.0 mm 0.02 in0.5 mm
03:33 AM 65.8°F18.8°C 55.4°F13.0°C 69% 6.0 mph NW9.7 kmh NW 12.5 mph20.1 kmh 30.01 in1016.3 mb 0.00 in0.0 mm 0.00 in0.0 mm 0.02 in0.5 mm
03:30 AM 66.0°F18.9°C 56.4°F13.6°C 71% 5.3 mph NNW8.5 kmh NNW 10.1 mph16.3 kmh 30.01 in1016.3 mb 0.00 in0.0 mm 0.00 in0.0 mm 0.02 in0.5 mm
03:27 AM 65.9°F18.8°C 58.2°F14.6°C 76% 6.6 mph NNE10.6 kmh NNE 12.5 mph20.1 kmh 30.01 in1016.3 mb 0.00 in0.0 mm 0.00 in0.0 mm 0.02 in0.5 mm
03:24 AM 65.7°F18.7°C 60.4°F15.8°C 83% 5.7 mph NNE9.2 kmh NNE 10.1 mph16.3 kmh 30.01 in1016.3 mb 0.00 in0.0 mm 0.00 in0.0 mm 0.02 in0.5 mm
03:21 AM 65.7°F18.7°C 61.0°F16.1°C 85% 2.6 mph N4.2 kmh N 10.1 mph16.3 kmh 30.01 in1016.3 mb 0.00 in0.0 mm 0.00 in0.0 mm 0.02 in0.5 mm
03:18 AM 65.5°F18.6°C 61.4°F16.3°C 87% 4.1 mph NNW6.6 kmh NNW 12.5 mph20.1 kmh 30.02 in1016.6 mb 0.00 in0.0 mm 0.00 in0.0 mm 0.02 in0.5 mm
03:15 AM 65.4°F18.6°C 61.7°F16.5°C 88% 5.4 mph WNW8.7 kmh WNW 10.1 mph16.3 kmh 30.02 in1016.6 mb 0.01 in0.3 mm 0.00 in0.0 mm 0.02 in0.5 mm
03:12 AM 65.2°F18.4°C 62.0°F16.7°C 90% 5.8 mph NNE9.3 kmh NNE 12.5 mph20.1 kmh 30.02 in1016.6 mb 0.02 in0.5 mm 0.00 in0.0 mm 0.02 in0.5 mm
03:09 AM 64.9°F18.3°C 62.1°F16.7°C 91% 2.5 mph N4.0 kmh N 7.6 mph12.2 kmh 30.02 in1016.6 mb 0.02 in0.5 mm 0.00 in0.0 mm 0.02 in0.5 mm
03:06 AM 64.9°F18.3°C 62.5°F16.9°C 92% 6.6 mph NW10.6 kmh NW 12.5 mph20.1 kmh 30.01 in1016.3 mb 0.02 in0.5 mm 0.00 in0.0 mm 0.02 in0.5 mm
03:03 AM 64.9°F18.3°C 62.7°F17.1°C 92% 2.1 mph N3.4 kmh N 4.9 mph7.9 kmh 30.00 in1015.9 mb 0.02 in0.5 mm 0.00 in0.0 mm 0.02 in0.5 mm
03:00 AM 64.9°F18.3°C 62.8°F17.1°C 93% 4.1 mph NW6.6 kmh NW 7.6 mph12.2 kmh 30.00 in1015.9 mb 0.02 in0.5 mm 0.00 in0.0 mm 0.02 in0.5 mm
02:57 AM 65.1°F18.4°C 63.0°F17.2°C 93% 3.0 mph NW4.8 kmh NW 7.6 mph12.2 kmh 30.00 in1015.9 mb 0.02 in0.5 mm 0.00 in0.0 mm 0.02 in0.5 mm
02:54 AM 65.4°F18.6°C 63.5°F17.5°C 94% 4.2 mph NW6.8 kmh NW 10.1 mph16.3 kmh 30.00 in1015.9 mb 0.02 in0.5 mm 0.00 in0.0 mm 0.02 in0.5 mm
02:51 AM 65.7°F18.7°C 63.9°F17.7°C 94% 7.4 mph NNW11.9 kmh NNW 12.5 mph20.1 kmh 29.99 in1015.6 mb 0.02 in0.5 mm 0.00 in0.0 mm 0.02 in0.5 mm
02:48 AM 65.7°F18.7°C 63.9°F17.7°C 94% 6.0 mph NW9.7 kmh NW 12.5 mph20.1 kmh 30.00 in1015.9 mb 0.02 in0.5 mm 0.00 in0.0 mm 0.02 in0.5 mm
02:45 AM 66.0°F18.9°C 64.1°F17.8°C 94% 3.5 mph N5.6 kmh N 7.6 mph12.2 kmh 30.00 in1015.9 mb 0.02 in0.5 mm 0.00 in0.0 mm 0.02 in0.5 mm
02:42 AM 66.4°F19.1°C 64.3°F17.9°C 93% 5.3 mph NW8.5 kmh NW 10.1 mph16.3 kmh 29.99 in1015.6 mb 0.02 in0.5 mm 0.00 in0.0 mm 0.02 in0.5 mm
02:39 AM 66.6°F19.2°C 64.5°F18.1°C 93% 9.8 mph NNW15.8 kmh NNW 15.0 mph24.1 kmh 29.99 in1015.6 mb 0.02 in0.5 mm 0.00 in0.0 mm 0.02 in0.5 mm
02:36 AM 67.2°F19.6°C 65.2°F18.4°C 93% 3.2 mph NW5.1 kmh NW 15.0 mph24.1 kmh 29.99 in1015.6 mb 0.02 in0.5 mm 0.00 in0.0 mm 0.02 in0.5 mm
02:33 AM 67.5°F19.7°C 65.4°F18.6°C 93% 3.8 mph WNW6.1 kmh WNW 12.5 mph20.1 kmh 29.98 in1015.2 mb 0.02 in0.5 mm 0.00 in0.0 mm 0.02 in0.5 mm
02:30 AM 67.6°F19.8°C 65.5°F18.6°C 93% 5.4 mph WNW8.7 kmh WNW 10.1 mph16.3 kmh 29.98 in1015.2 mb 0.02 in0.5 mm 0.00 in0.0 mm 0.02 in0.5 mm
02:27 AM 67.7°F19.8°C 65.3°F18.5°C 92% 2.5 mph W4.0 kmh W 4.9 mph7.9 kmh 29.99 in1015.6 mb 0.02 in0.5 mm 0.00 in0.0 mm 0.02 in0.5 mm
02:24 AM 67.8°F19.9°C 65.4°F18.6°C 92% 3.9 mph NW6.3 kmh NW 7.6 mph12.2 kmh 29.99 in1015.6 mb 0.02 in0.5 mm 0.00 in0.0 mm 0.02 in0.5 mm
02:21 AM 68.0°F20.0°C 65.2°F18.4°C 91% 5.9 mph NNE9.5 kmh NNE 10.1 mph16.3 kmh 29.99 in1015.6 mb 0.02 in0.5 mm 0.00 in0.0 mm 0.02 in0.5 mm
02:18 AM 68.4°F20.2°C 65.3°F18.5°C 90% 7.5 mph N12.1 kmh N 12.5 mph20.1 kmh 29.99 in1015.6 mb 0.02 in0.5 mm 0.20 in5.1 mm 0.02 in0.5 mm
02:15 AM 68.9°F20.5°C 65.8°F18.8°C 90% 9.3 mph NW15.0 kmh NW 12.5 mph20.1 kmh 29.99 in1015.6 mb 0.01 in0.3 mm 0.20 in5.1 mm 0.01 in0.3 mm
02:12 AM 69.4°F20.8°C 66.3°F19.1°C 90% 7.3 mph NNW11.7 kmh NNW 15.0 mph24.1 kmh 29.99 in1015.6 mb 0.00 in0.0 mm 0.00 in0.0 mm 0.00 in0.0 mm
02:09 AM 69.8°F21.0°C 66.4°F19.1°C 89% 3.7 mph NW6.0 kmh NW 12.5 mph20.1 kmh 29.99 in1015.6 mb 0.00 in0.0 mm 0.00 in0.0 mm 0.00 in0.0 mm
02:06 AM 70.0°F21.1°C 66.7°F19.3°C 89% 8.5 mph NW13.7 kmh NW 17.4 mph28.0 kmh 29.99 in1015.6 mb 0.00 in0.0 mm 0.00 in0.0 mm 0.00 in0.0 mm
02:03 AM 70.5°F21.4°C 67.0°F19.4°C 89% 7.7 mph NW12.4 kmh NW 15.0 mph24.1 kmh 29.98 in1015.2 mb 0.00 in0.0 mm 0.00 in0.0 mm 0.00 in0.0 mm
02:00 AM 70.7°F21.5°C 67.3°F19.6°C 89% 3.8 mph N6.1 kmh N 7.6 mph12.2 kmh 29.99 in1015.6 mb 0.00 in0.0 mm 0.00 in0.0 mm 0.00 in0.0 mm
01:57 AM 70.9°F21.6°C 67.3°F19.6°C 88% 4.8 mph NNW7.7 kmh NNW 7.6 mph12.2 kmh 29.98 in1015.2 mb 0.00 in0.0 mm 0.00 in0.0 mm 0.00 in0.0 mm
01:54 AM 71.3°F21.8°C 67.3°F19.6°C 87% 2.7 mph WNW4.3 kmh WNW 4.9 mph7.9 kmh 29.98 in1015.2 mb 0.00 in0.0 mm 0.00 in0.0 mm 0.00 in0.0 mm
01:51 AM 71.8°F22.1°C 67.2°F19.6°C 86% 3.2 mph NNW5.1 kmh NNW 7.6 mph12.2 kmh 29.98 in1015.2 mb 0.00 in0.0 mm 0.00 in0.0 mm 0.00 in0.0 mm
01:48 AM 72.2°F22.3°C 67.2°F19.6°C 84% 2.7 mph NW4.3 kmh NW 7.6 mph12.2 kmh 29.98 in1015.2 mb 0.00 in0.0 mm 0.00 in0.0 mm 0.00 in0.0 mm
01:45 AM 72.3°F22.4°C 67.2°F19.6°C 84% 5.6 mph NW9.0 kmh NW 10.1 mph16.3 kmh 29.97 in1014.9 mb 0.00 in0.0 mm 0.00 in0.0 mm 0.00 in0.0 mm
01:42 AM 72.3°F22.4°C 67.2°F19.6°C 84% 1.5 mph NNW2.4 kmh NNW 4.9 mph7.9 kmh 29.97 in1014.9 mb 0.00 in0.0 mm 0.00 in0.0 mm 0.00 in0.0 mm
01:39 AM 72.3°F22.4°C 67.1°F19.5°C 84% 5.2 mph NW8.4 kmh NW 10.1 mph16.3 kmh 29.97 in1014.9 mb 0.00 in0.0 mm 0.00 in0.0 mm 0.00 in0.0 mm
01:36 AM 72.3°F22.4°C 66.8°F19.3°C 83% 3.8 mph NNW6.1 kmh NNW 10.1 mph16.3 kmh 29.97 in1014.9 mb 0.00 in0.0 mm 0.00 in0.0 mm 0.00 in0.0 mm
01:33 AM 72.7°F22.6°C 67.2°F19.6°C 83% 3.9 mph NNE6.3 kmh NNE 12.5 mph20.1 kmh 29.96 in1014.6 mb 0.00 in0.0 mm 0.00 in0.0 mm 0.00 in0.0 mm
01:30 AM 72.9°F22.7°C 67.4°F19.7°C 83% 8.6 mph NNE13.8 kmh NNE 12.5 mph20.1 kmh 29.96 in1014.6 mb 0.00 in0.0 mm 0.00 in0.0 mm 0.00 in0.0 mm
01:27 AM 72.8°F22.7°C 67.5°F19.7°C 84% 11.4 mph NNE18.3 kmh NNE 17.4 mph28.0 kmh 29.96 in1014.6 mb 0.00 in0.0 mm 0.00 in0.0 mm 0.00 in0.0 mm
01:24 AM 72.6°F22.6°C 67.5°F19.7°C 84% 4.3 mph NNE6.9 kmh NNE 10.1 mph16.3 kmh 29.96 in1014.6 mb 0.00 in0.0 mm 0.00 in0.0 mm 0.00 in0.0 mm
01:21 AM 72.3°F22.4°C 67.2°F19.6°C 84% 4.7 mph N7.6 kmh N 10.1 mph16.3 kmh 29.96 in1014.6 mb 0.00 in0.0 mm 0.00 in0.0 mm 0.00 in0.0 mm
01:18 AM 72.3°F22.4°C 67.2°F19.6°C 84% 5.6 mph WNW9.0 kmh WNW 12.5 mph20.1 kmh 29.96 in1014.6 mb 0.00 in0.0 mm 0.00 in0.0 mm 0.00 in0.0 mm
01:15 AM 72.2°F22.3°C 67.1°F19.5°C 84% 3.9 mph N6.3 kmh N 10.1 mph16.3 kmh 29.96 in1014.6 mb 0.00 in0.0 mm 0.00 in0.0 mm 0.00 in0.0 mm
01:12 AM 72.3°F22.4°C 67.2°F19.6°C 84% 4.5 mph NNW7.2 kmh NNW 10.1 mph16.3 kmh 29.96 in1014.6 mb 0.00 in0.0 mm 0.00 in0.0 mm 0.00 in0.0 mm
01:09 AM 72.2°F22.3°C 67.1°F19.5°C 84% 2.7 mph NW4.3 kmh NW 7.6 mph12.2 kmh 29.96 in1014.6 mb 0.00 in0.0 mm 0.00 in0.0 mm 0.00 in0.0 mm
01:06 AM 72.3°F22.4°C 67.2°F19.6°C 84% 3.4 mph NW5.5 kmh NW 12.5 mph20.1 kmh 29.96 in1014.6 mb 0.00 in0.0 mm 0.00 in0.0 mm 0.00 in0.0 mm
01:03 AM 72.1°F22.3°C 67.2°F19.6°C 85% 4.5 mph NW7.2 kmh NW 10.1 mph16.3 kmh 29.96 in1014.6 mb 0.00 in0.0 mm 0.00 in0.0 mm 0.00 in0.0 mm
01:00 AM 72.1°F22.3°C 67.3°F19.6°C 85% 1.8 mph W2.9 kmh W 4.9 mph7.9 kmh 29.96 in1014.6 mb 0.00 in0.0 mm 0.00 in0.0 mm 0.00 in0.0 mm
12:57 AM 72.1°F22.3°C 67.3°F19.6°C 85% 4.6 mph NNW7.4 kmh NNW 10.1 mph16.3 kmh 29.96 in1014.6 mb 0.00 in0.0 mm 0.00 in0.0 mm 0.00 in0.0 mm
12:54 AM 72.1°F22.3°C 67.7°F19.8°C 86% 1.7 mph WNW2.7 kmh WNW 4.9 mph7.9 kmh 29.96 in1014.6 mb 0.00 in0.0 mm 0.00 in0.0 mm 0.00 in0.0 mm
12:51 AM 72.0°F22.2°C 67.6°F19.8°C 86% 1.1 mph NW1.8 kmh NW 2.5 mph4.0 kmh 29.96 in1014.6 mb 0.00 in0.0 mm 0.00 in0.0 mm 0.00 in0.0 mm
12:48 AM 72.0°F22.2°C 67.6°F19.8°C 86% 1.7 mph W2.7 kmh W 4.9 mph7.9 kmh 29.96 in1014.6 mb 0.00 in0.0 mm 0.00 in0.0 mm 0.00 in0.0 mm
12:45 AM 72.1°F22.3°C 67.7°F19.8°C 86% 0.8 mph W1.3 kmh W 2.5 mph4.0 kmh 29.96 in1014.6 mb 0.00 in0.0 mm 0.00 in0.0 mm 0.00 in0.0 mm
12:42 AM 72.1°F22.3°C 67.7°F19.8°C 86% 1.1 mph N1.8 kmh N 4.9 mph7.9 kmh 29.96 in1014.6 mb 0.00 in0.0 mm 0.00 in0.0 mm 0.00 in0.0 mm
12:39 AM 72.3°F22.4°C 68.1°F20.1°C 87% 1.2 mph NW1.9 kmh NW 4.9 mph7.9 kmh 29.96 in1014.6 mb 0.00 in0.0 mm 0.00 in0.0 mm 0.00 in0.0 mm
12:36 AM 72.4°F22.4°C 68.6°F20.3°C 88% 1.8 mph W2.9 kmh W 4.9 mph7.9 kmh 29.95 in1014.2 mb 0.00 in0.0 mm 0.00 in0.0 mm 0.00 in0.0 mm
12:33 AM 72.7°F22.6°C 68.9°F20.5°C 88% 2.9 mph NW4.7 kmh NW 4.9 mph7.9 kmh 29.95 in1014.2 mb 0.00 in0.0 mm 0.00 in0.0 mm 0.00 in0.0 mm
12:30 AM 72.9°F22.7°C 69.5°F20.8°C 89% 4.2 mph NW6.8 kmh NW 7.6 mph12.2 kmh 29.95 in1014.2 mb 0.00 in0.0 mm 0.00 in0.0 mm 0.00 in0.0 mm
12:27 AM 73.0°F22.8°C 69.8°F21.0°C 90% 2.9 mph NW4.7 kmh NW 4.9 mph7.9 kmh 29.95 in1014.2 mb 0.00 in0.0 mm 0.00 in0.0 mm 0.00 in0.0 mm
12:24 AM 73.0°F22.8°C 70.2°F21.2°C 91% 1.6 mph NW2.6 kmh NW 2.5 mph4.0 kmh 29.95 in1014.2 mb 0.00 in0.0 mm 0.00 in0.0 mm 0.00 in0.0 mm
12:21 AM 73.3°F22.9°C 71.3°F21.8°C 94% 3.4 mph NW5.5 kmh NW 10.1 mph16.3 kmh 29.94 in1013.9 mb 0.00 in0.0 mm 0.00 in0.0 mm 0.00 in0.0 mm
12:18 AM 73.5°F23.1°C 72.0°F22.2°C 95% 3.1 mph NW5.0 kmh NW 7.6 mph12.2 kmh 29.94 in1013.9 mb 0.00 in0.0 mm 0.00 in0.0 mm 0.00 in0.0 mm
12:15 AM 73.8°F23.2°C 72.5°F22.5°C 96% 2.9 mph NNW4.7 kmh NNW 4.9 mph7.9 kmh 29.94 in1013.9 mb 0.00 in0.0 mm 0.00 in0.0 mm 0.00 in0.0 mm
12:12 AM 74.0°F23.3°C 72.7°F22.6°C 96% 5.0 mph WNW8.0 kmh WNW 7.6 mph12.2 kmh 29.94 in1013.9 mb 0.00 in0.0 mm 0.00 in0.0 mm 0.00 in0.0 mm
12:09 AM 74.1°F23.4°C 73.2°F22.9°C 97% 4.6 mph NW7.4 kmh NW 10.1 mph16.3 kmh 29.94 in1013.9 mb 0.00 in0.0 mm 0.00 in0.0 mm 0.00 in0.0 mm
12:06 AM 74.3°F23.5°C 73.4°F23.0°C 97% 3.2 mph NW5.1 kmh NW 7.6 mph12.2 kmh 29.94 in1013.9 mb 0.00 in0.0 mm 0.00 in0.0 mm 0.00 in0.0 mm
12:03 AM 74.5°F23.6°C 73.6°F23.1°C 97% 2.8 mph WNW4.5 kmh WNW 7.6 mph12.2 kmh 29.94 in1013.9 mb 0.00 in0.0 mm 0.00 in0.0 mm 0.00 in0.0 mm
12:00 AM 74.7°F23.7°C 73.8°F23.2°C 97% 2.6 mph W4.2 kmh W 4.9 mph7.9 kmh 29.93 in1013.5 mb 0.00 in0.0 mm 0.00 in0.0 mm 0.00 in0.0 mm